Time;durP1;ratioP1;P1;durP2;ratioP2;P2;SDS_P1;SDS_P2;PMS_P1;PMS_P2;Temp;Humidity;BMP_temperature;BMP_pressure;BME280_temperature;BME280_humidity;BME280_pressure;Samples;Min_cycle;Max_cycle;Signal;HPM_P1;HPM_P2
2022/10/22 00:02:38;;;;;;;2.22;1.33;;;16.60;73.20;;;;;;10463862;28;20761;-65
2022/10/22 00:07:39;;;;;;;2.10;1.38;;;16.60;73.20;;;;;;10443240;28;20662;-64
2022/10/22 00:12:40;;;;;;;1.98;1.20;;;16.70;73.30;;;;;;10449440;28;20033;-65
2022/10/22 00:17:41;;;;;;;2.00;1.30;;;16.60;73.20;;;;;;10449214;28;20055;-64
2022/10/22 00:22:41;;;;;;;2.25;1.73;;;16.60;73.20;;;;;;10447870;28;20119;-65
2022/10/22 00:27:42;;;;;;;2.10;1.52;;;16.60;73.20;;;;;;10431171;28;20507;-65
2022/10/22 00:32:43;;;;;;;1.70;1.40;;;16.60;73.10;;;;;;10461123;28;20013;-65
2022/10/22 00:37:43;;;;;;;2.13;1.40;;;16.60;73.10;;;;;;10447619;28;20045;-65
2022/10/22 00:42:44;;;;;;;2.17;1.13;;;16.70;73.20;;;;;;10447044;28;20080;-65
2022/10/22 00:47:58;;;;;;;1.70;1.20;;;16.60;73.20;;;;;;10430536;28;20108;-64
2022/10/22 00:53:00;;;;;;;2.03;1.27;;;16.60;73.20;;;;;;10459679;28;20100;-65
2022/10/22 00:58:01;;;;;;;2.45;1.38;;;16.60;73.20;;;;;;10446864;28;20139;-64
2022/10/22 01:03:02;;;;;;;1.98;1.13;;;16.60;73.20;;;;;;10464315;28;20107;-65
2022/10/22 01:08:04;;;;;;;1.98;1.17;;;16.60;73.20;;;;;;10451340;28;20017;-65
2022/10/22 01:13:25;;;;;;;2.47;1.55;;;16.60;73.10;;;;;;10444585;28;20082;-64
2022/10/22 01:19:08;;;;;;;2.13;1.40;;;16.60;73.10;;;;;;10444904;28;20025;-65
2022/10/22 01:24:55;;;;;;;2.10;1.27;;;16.60;73.10;;;;;;10450487;28;20056;-65
2022/10/22 01:30:09;;;;;;;2.25;1.48;;;16.60;73.10;;;;;;10392615;28;20025;-64
2022/10/22 01:35:15;;;;;;;2.17;1.50;;;16.60;73.10;;;;;;10445105;28;20032;-65
2022/10/22 01:40:17;;;;;;;3.35;1.42;;;16.60;73.10;;;;;;10445676;28;20028;-65
2022/10/22 01:45:17;;;;;;;2.50;1.33;;;16.60;73.10;;;;;;10445073;28;20473;-64
2022/10/22 01:50:38;;;;;;;2.13;1.30;;;16.60;73.10;;;;;;10444835;28;20104;-64
2022/10/22 01:56:05;;;;;;;2.03;1.40;;;16.60;73.00;;;;;;10445859;28;20032;-64
2022/10/22 02:01:22;;;;;;;2.10;1.30;;;16.60;73.00;;;;;;10433939;28;20856;-65
2022/10/22 02:06:24;;;;;;;2.35;1.60;;;16.60;73.00;;;;;;10434836;28;20120;-65
2022/10/22 02:11:26;;;;;;;2.45;1.20;;;16.60;73.00;;;;;;10453103;28;20461;-64
2022/10/22 02:16:36;;;;;;;1.67;1.10;;;16.60;73.00;;;;;;10453606;28;20025;-64
2022/10/22 02:21:37;;;;;;;1.60;1.13;;;16.60;73.10;;;;;;10436132;28;20033;-65
2022/10/22 02:27:07;;;;;;;1.77;1.20;;;16.60;73.10;;;;;;10452054;28;20013;-64
2022/10/22 02:32:13;;;;;;;2.22;1.40;;;16.60;73.10;;;;;;10450044;28;20086;-64
2022/10/22 02:37:14;;;;;;;2.97;1.50;;;16.60;73.10;;;;;;10450841;28;20028;-65
2022/10/22 02:42:15;;;;;;;1.60;1.08;;;16.60;73.20;;;;;;10451063;28;20049;-64
2022/10/22 02:47:16;;;;;;;2.17;1.10;;;16.60;73.70;;;;;;10451392;28;20870;-64
2022/10/22 02:52:17;;;;;;;1.75;1.30;;;16.60;73.10;;;;;;10451325;28;20645;-65
2022/10/22 02:57:17;;;;;;;1.17;1.02;;;16.60;73.10;;;;;;10451045;28;20062;-64
2022/10/22 03:02:18;;;;;;;2.22;1.33;;;16.60;73.00;;;;;;10463375;28;20382;-64
2022/10/22 03:07:19;;;;;;;3.45;1.42;;;16.60;73.00;;;;;;10464348;28;20017;-64
2022/10/22 03:12:19;;;;;;;1.45;1.08;;;16.60;73.00;;;;;;10450089;28;20033;-65
2022/10/22 03:17:20;;;;;;;2.05;1.40;;;16.60;73.00;;;;;;10450170;28;20115;-65
2022/10/22 03:22:26;;;;;;;1.77;1.30;;;16.60;73.00;;;;;;10450096;28;20072;-64
2022/10/22 03:27:28;;;;;;;1.77;1.23;;;16.60;73.00;;;;;;10433531;28;20428;-64
2022/10/22 03:32:29;;;;;;;2.20;1.23;;;16.60;73.00;;;;;;10432951;28;20031;-63
2022/10/22 03:37:30;;;;;;;1.23;0.90;;;16.50;72.90;;;;;;10449451;28;20020;-64
2022/10/22 03:42:31;;;;;;;1.77;1.13;;;16.60;73.00;;;;;;10449424;28;20049;-64
2022/10/22 03:47:32;;;;;;;1.67;1.20;;;16.50;72.90;;;;;;10449542;28;20021;-64
2022/10/22 03:52:39;;;;;;;1.95;0.95;;;16.60;73.00;;;;;;10448867;28;20371;-64
2022/10/22 03:57:40;;;;;;;1.70;1.20;;;16.50;73.50;;;;;;10449050;28;20376;-64
2022/10/22 04:02:40;;;;;;;1.70;1.25;;;16.60;73.00;;;;;;10465418;28;20052;-64
2022/10/22 04:07:41;;;;;;;1.70;1.20;;;16.60;73.00;;;;;;10476482;28;20417;-65
2022/10/22 04:12:41;;;;;;;1.90;1.50;;;16.50;72.90;;;;;;10442204;28;20646;-65
2022/10/22 04:17:42;;;;;;;1.83;1.17;;;16.50;73.00;;;;;;10430110;28;20017;-65
2022/10/22 04:22:43;;;;;;;1.60;1.10;;;16.50;73.00;;;;;;10447687;28;20364;-64
2022/10/22 04:27:44;;;;;;;2.38;1.33;;;16.50;73.10;;;;;;10447885;28;20052;-64
2022/10/22 04:32:44;;;;;;;1.98;1.27;;;16.50;73.10;;;;;;10446637;28;20646;-64
2022/10/22 04:37:45;;;;;;;1.90;1.27;;;16.50;73.10;;;;;;10446146;28;20107;-64
2022/10/22 04:42:46;;;;;;;2.13;1.27;;;16.50;73.10;;;;;;10445123;28;20080;-63
2022/10/22 04:47:47;;;;;;;2.20;1.00;;;16.50;73.10;;;;;;10446927;28;20029;-64
2022/10/22 04:52:47;;;;;;;1.10;0.70;;;16.50;73.10;;;;;;10446869;28;20174;-64
2022/10/22 04:57:48;;;;;;;2.30;0.95;;;16.50;73.00;;;;;;10458879;28;20110;-64
2022/10/22 05:02:49;;;;;;;1.08;0.80;;;16.50;73.00;;;;;;10449523;28;20062;-64
2022/10/22 05:07:50;;;;;;;1.70;1.10;;;16.50;73.00;;;;;;10455769;28;20013;-63
2022/10/22 05:12:51;;;;;;;2.03;1.15;;;16.50;73.00;;;;;;10443619;28;20060;-64
2022/10/22 05:17:52;;;;;;;1.52;0.90;;;16.50;73.00;;;;;;10446673;28;20055;-63
2022/10/22 05:22:52;;;;;;;2.63;1.10;;;16.50;73.00;;;;;;10441079;28;20108;-64
2022/10/22 05:27:53;;;;;;;10.35;1.90;;;16.50;73.00;;;;;;10440147;28;20099;-64
2022/10/22 05:32:53;;;;;;;6.63;1.42;;;16.50;73.40;;;;;;10445987;28;20100;-62
2022/10/22 05:37:54;;;;;;;5.80;1.40;;;16.50;73.70;;;;;;10445631;28;20571;-61
2022/10/22 05:42:55;;;;;;;2.50;1.48;;;16.50;73.80;;;;;;10437847;28;20101;-62
2022/10/22 05:47:55;;;;;;;5.10;1.95;;;16.50;73.80;;;;;;10439700;28;20100;-61
2022/10/22 05:52:56;;;;;;;10.85;1.88;;;16.50;74.00;;;;;;10446401;28;20088;-63
2022/10/22 05:57:57;;;;;;;42.53;7.93;;;16.50;74.20;;;;;;10454477;28;20025;-64
2022/10/22 06:02:57;;;;;;;7.22;1.65;;;16.50;74.30;;;;;;10445826;28;20064;-66
2022/10/22 06:07:59;;;;;;;6.85;1.85;;;16.60;76.00;;;;;;10445345;28;20098;-66
2022/10/22 06:13:02;;;;;;;11.50;3.03;;;16.70;76.00;;;;;;10441740;28;20025;-61
2022/10/22 06:18:03;;;;;;;11.98;2.08;;;16.70;75.80;;;;;;10441343;28;20029;-61
2022/10/22 06:23:04;;;;;;;10.82;2.78;;;16.70;76.30;;;;;;10441820;28;20419;-60
2022/10/22 06:28:04;;;;;;;16.25;2.38;;;16.70;76.20;;;;;;10444352;28;20020;-61
2022/10/22 06:33:05;;;;;;;10.95;2.25;;;16.70;76.20;;;;;;10440187;28;20041;-60
2022/10/22 06:38:06;;;;;;;15.02;3.05;;;16.70;76.30;;;;;;10437486;28;20092;-61
2022/10/22 06:43:07;;;;;;;7.88;2.13;;;16.70;76.30;;;;;;10443665;28;20132;-62
2022/10/22 06:48:07;;;;;;;16.83;3.80;;;16.70;76.00;;;;;;10443315;28;20068;-61
2022/10/22 06:53:08;;;;;;;10.23;2.45;;;16.70;75.80;;;;;;10464942;28;20059;-61
2022/10/22 06:58:09;;;;;;;16.08;2.83;;;16.60;75.80;;;;;;10451212;28;20049;-62
2022/10/22 07:03:13;;;;;;;23.67;3.65;;;16.60;75.80;;;;;;10455713;28;20120;-61
2022/10/22 07:08:13;;;;;;;15.57;2.70;;;16.60;75.90;;;;;;10440538;28;20020;-61
2022/10/22 07:13:14;;;;;;;14.00;2.92;;;16.60;75.90;;;;;;10451332;28;20031;-62
2022/10/22 07:18:15;;;;;;;17.58;3.17;;;16.60;75.90;;;;;;10450293;28;20488;-62
2022/10/22 07:23:17;;;;;;;20.08;3.10;;;16.60;75.90;;;;;;10446566;28;20119;-62
2022/10/22 07:28:17;;;;;;;15.82;2.33;;;16.60;75.90;;;;;;10449880;28;20040;-64
2022/10/22 07:33:18;;;;;;;17.00;3.97;;;16.70;75.40;;;;;;10449687;28;20028;-64
2022/10/22 07:38:19;;;;;;;24.70;4.25;;;16.70;75.70;;;;;;10432646;28;20021;-65
2022/10/22 07:43:20;;;;;;;25.42;4.30;;;16.70;75.90;;;;;;10450308;28;20059;-64
2022/10/22 07:48:21;;;;;;;31.90;3.72;;;16.70;76.30;;;;;;10447216;28;20029;-65
2022/10/22 07:53:22;;;;;;;31.05;4.55;;;16.70;76.50;;;;;;10448117;28;20015;-63
2022/10/22 07:58:23;;;;;;;42.00;6.45;;;16.80;77.40;;;;;;10448500;28;20024;-67
2022/10/22 08:03:24;;;;;;;34.33;6.38;;;16.90;77.40;;;;;;10456595;28;20111;-63
2022/10/22 08:08:25;;;;;;;27.23;4.45;;;16.90;77.40;;;;;;10449330;28;20113;-65
2022/10/22 08:13:29;;;;;;;23.48;4.90;;;16.80;77.30;;;;;;10431166;28;20112;-71
2022/10/22 08:18:30;;;;;;;19.10;4.93;;;16.80;77.50;;;;;;10460483;28;20020;-67
2022/10/22 08:23:30;;;;;;;23.48;4.10;;;16.80;77.20;;;;;;10455501;28;20025;-68
2022/10/22 08:28:35;;;;;;;19.42;4.40;;;16.70;76.70;;;;;;10449430;28;20009;-68
2022/10/22 08:33:37;;;;;;;12.68;4.18;;;16.70;76.70;;;;;;10464325;28;20017;-67
2022/10/22 08:38:38;;;;;;;16.10;4.15;;;16.70;76.80;;;;;;10449685;28;20021;-69
2022/10/22 08:44:14;;;;;;;16.98;4.05;;;16.70;77.40;;;;;;10460222;28;20547;-69
2022/10/22 08:49:27;;;;;;;10.77;4.25;;;16.60;76.70;;;;;;10445829;28;20020;-69
2022/10/22 08:54:57;;;;;;;13.27;3.80;;;16.60;76.70;;;;;;10449576;28;20106;-70
2022/10/22 09:00:26;;;;;;;7.50;2.90;;;16.60;76.80;;;;;;10450688;28;20021;-70
2022/10/22 09:05:41;;;;;;;10.00;3.05;;;16.60;76.70;;;;;;10450070;28;20032;-68
2022/10/22 09:11:02;;;;;;;10.55;2.90;;;16.60;76.70;;;;;;10450760;28;20114;-68
2022/10/22 09:16:18;;;;;;;10.40;3.53;;;16.60;76.50;;;;;;10427644;28;20071;-68
2022/10/22 09:21:52;;;;;;;8.98;2.47;;;16.60;76.60;;;;;;10445217;28;20039;-68
2022/10/22 09:26:54;;;;;;;11.63;3.38;;;16.60;76.50;;;;;;10433395;28;20060;-69
2022/10/22 09:31:55;;;;;;;13.75;3.42;;;16.60;76.70;;;;;;10444334;28;20029;-69
2022/10/22 09:37:04;;;;;;;8.85;2.75;;;16.60;76.60;;;;;;10443498;28;20445;-69
2022/10/22 09:42:09;;;;;;;10.43;3.40;;;16.60;76.30;;;;;;10433433;28;20045;-68
2022/10/22 09:47:40;;;;;;;13.95;2.97;;;16.60;76.30;;;;;;10444531;28;20032;-68
2022/10/22 09:52:40;;;;;;;9.40;4.03;;;16.60;76.10;;;;;;10444571;28;20086;-68
2022/10/22 09:57:41;;;;;;;7.45;3.17;;;16.60;76.70;;;;;;10444637;28;20020;-68
2022/10/22 10:02:42;;;;;;;6.13;2.38;;;16.60;76.20;;;;;;10443693;28;20116;-68
2022/10/22 10:07:43;;;;;;;7.93;2.95;;;16.60;76.10;;;;;;10443143;28;20021;-69
2022/10/22 10:13:02;;;;;;;19.98;4.07;;;16.60;76.10;;;;;;10444832;28;20059;-67
2022/10/22 10:18:42;;;;;;;12.32;2.95;;;16.60;76.30;;;;;;10446019;28;20074;-68
2022/10/22 10:24:13;;;;;;;12.33;3.53;;;16.70;76.60;;;;;;10443968;28;20477;-67
2022/10/22 10:29:28;;;;;;;10.18;2.47;;;16.70;76.60;;;;;;10451550;28;20539;-64
2022/10/22 10:34:56;;;;;;;20.63;3.47;;;16.80;77.00;;;;;;10450880;28;20028;-66
2022/10/22 10:40:35;;;;;;;13.05;2.92;;;16.90;77.00;;;;;;10423576;28;20021;-68
2022/10/22 10:46:10;;;;;;;12.93;3.28;;;17.00;76.80;;;;;;10449601;28;20102;-61
2022/10/22 10:51:42;;;;;;;10.20;3.60;;;17.00;76.80;;;;;;10451285;28;20052;-69
2022/10/22 10:57:18;;;;;;;15.85;2.58;;;17.10;76.30;;;;;;10453137;28;20009;-69
2022/10/22 11:03:14;;;;;;;14.27;3.90;;;17.20;76.30;;;;;;10456694;28;20068;-64
2022/10/22 11:08:24;;;;;;;23.23;3.63;;;17.10;76.70;;;;;;10452261;28;20041;-68
2022/10/22 11:13:39;;;;;;;17.05;3.60;;;17.00;77.20;;;;;;10462548;28;20254;-68
2022/10/22 11:19:10;;;;;;;24.70;4.78;;;17.00;77.20;;;;;;10446976;28;20128;-65
2022/10/22 11:24:34;;;;;;;;;;;17.00;77.40;;;;;;10452197;28;20036;-67
2022/10/22 11:29:44;;;;;;;14.43;3.95;;;17.00;77.60;;;;;;10444359;28;19912;-64
2022/10/22 11:34:56;;;;;;;30.65;5.10;;;16.90;77.60;;;;;;10426674;28;20016;-63
2022/10/22 11:40:01;;;;;;;25.83;4.95;;;16.90;77.30;;;;;;10448953;28;20040;-65
2022/10/22 11:45:25;;;;;;;35.75;5.80;;;16.90;77.50;;;;;;10445239;28;20037;-67
2022/10/22 11:50:51;;;;;;;48.53;6.00;;;16.90;77.50;;;;;;10446134;28;20166;-66
2022/10/22 11:56:08;;;;;;;47.08;7.15;;;17.00;77.60;;;;;;10460688;28;20021;-65
2022/10/22 12:01:09;;;;;;;38.78;6.60;;;16.90;77.70;;;;;;10445006;28;20325;-62
2022/10/22 12:06:10;;;;;;;30.98;7.07;;;17.00;77.90;;;;;;10461404;28;20115;-67
2022/10/22 12:11:11;;;;;;;21.48;5.97;;;16.90;77.80;;;;;;10452789;28;20036;-64
2022/10/22 12:16:13;;;;;;;30.00;7.65;;;16.90;77.50;;;;;;10455048;28;20028;-65
2022/10/22 12:21:16;;;;;;;25.08;5.32;;;16.90;77.40;;;;;;10448301;28;20028;-65
2022/10/22 12:26:29;;;;;;;19.05;5.15;;;16.80;77.40;;;;;;10447134;28;20056;-65
2022/10/22 12:31:36;;;;;;;14.75;4.38;;;16.80;77.30;;;;;;10447887;28;20021;-65
2022/10/22 12:36:38;;;;;;;18.63;4.22;;;16.80;77.30;;;;;;10446042;28;20025;-66
2022/10/22 12:41:39;;;;;;;16.55;4.00;;;16.80;77.20;;;;;;10444744;28;20041;-64
2022/10/22 12:46:42;;;;;;;11.88;4.72;;;16.90;77.10;;;;;;10445497;28;20021;-66
2022/10/22 12:51:45;;;;;;;21.02;4.32;;;16.90;77.00;;;;;;10446348;28;20555;-63
2022/10/22 12:56:46;;;;;;;24.10;5.65;;;16.90;77.70;;;;;;10447663;28;20056;-65
2022/10/22 13:01:49;;;;;;;19.98;4.97;;;17.00;77.30;;;;;;10454123;28;20032;-64
2022/10/22 13:07:14;;;;;;;23.58;5.72;;;17.00;77.00;;;;;;10444625;28;20033;-65
2022/10/22 13:12:23;;;;;;;16.17;5.47;;;17.00;76.80;;;;;;10443445;28;20029;-64
2022/10/22 13:17:39;;;;;;;16.60;3.87;;;16.90;76.80;;;;;;10431928;28;20472;-64
2022/10/22 13:22:53;;;;;;;16.08;3.33;;;16.90;76.80;;;;;;10450961;28;20108;-65
2022/10/22 13:28:01;;;;;;;24.67;6.07;;;16.90;76.80;;;;;;10426606;28;20464;-64
2022/10/22 13:33:05;;;;;;;14.75;3.45;;;16.90;76.80;;;;;;10442924;28;20025;-64
2022/10/22 13:38:17;;;;;;;14.05;5.40;;;16.90;76.80;;;;;;10442705;28;20090;-64
2022/10/22 13:43:18;;;;;;;16.85;4.35;;;16.90;76.70;;;;;;10426107;28;20051;-64
2022/10/22 13:48:22;;;;;;;13.38;4.47;;;16.90;76.60;;;;;;10458140;28;20120;-64
2022/10/22 13:53:26;;;;;;;7.35;2.72;;;16.90;76.60;;;;;;10442705;28;20143;-64
2022/10/22 13:58:27;;;;;;;14.93;3.88;;;16.90;76.70;;;;;;10443562;28;20017;-64
2022/10/22 14:03:33;;;;;;;10.30;3.83;;;16.80;76.60;;;;;;10442500;28;20060;-64
2022/10/22 14:08:33;;;;;;;9.88;3.50;;;16.80;76.60;;;;;;10437552;28;20060;-64
2022/10/22 14:13:34;;;;;;;5.95;3.38;;;16.80;76.50;;;;;;10433789;28;20175;-64
2022/10/22 14:18:35;;;;;;;10.13;2.95;;;16.80;76.50;;;;;;10449858;28;20112;-64
2022/10/22 14:23:36;;;;;;;12.13;3.60;;;16.80;76.50;;;;;;10449863;28;20025;-64
2022/10/22 14:28:36;;;;;;;4.68;2.60;;;16.80;76.40;;;;;;10449894;28;20023;-64
2022/10/22 14:33:38;;;;;;;8.07;3.05;;;16.80;76.40;;;;;;10433200;28;20524;-63
2022/10/22 14:38:41;;;;;;;11.63;2.50;;;16.80;76.40;;;;;;10450820;28;20081;-65
2022/10/22 14:43:42;;;;;;;6.43;2.50;;;16.80;76.40;;;;;;10449018;28;20037;-65
2022/10/22 14:48:42;;;;;;;7.80;2.22;;;16.80;76.40;;;;;;10449514;28;20063;-65
2022/10/22 14:53:43;;;;;;;6.80;2.33;;;16.80;76.40;;;;;;10449256;28;20025;-63
2022/10/22 14:58:44;;;;;;;7.60;2.90;;;16.80;76.40;;;;;;10432153;28;20056;-63
2022/10/22 15:03:45;;;;;;;6.93;2.58;;;16.80;76.30;;;;;;10460341;28;20394;-64
2022/10/22 15:08:46;;;;;;;6.78;2.40;;;16.80;76.30;;;;;;10450813;28;20500;-64
2022/10/22 15:13:46;;;;;;;7.78;2.08;;;16.80;76.30;;;;;;10431607;28;20986;-64
2022/10/22 15:18:47;;;;;;;6.97;2.47;;;16.80;76.20;;;;;;10466176;28;20033;-64
2022/10/22 15:23:48;;;;;;;11.85;2.70;;;16.80;76.20;;;;;;10448445;28;20107;-64
2022/10/22 15:28:49;;;;;;;7.53;2.75;;;16.80;76.30;;;;;;10448872;28;20010;-63
2022/10/22 15:33:49;;;;;;;8.80;3.17;;;16.90;77.00;;;;;;10448783;28;20023;-64
2022/10/22 15:38:50;;;;;;;7.00;2.70;;;17.00;76.50;;;;;;10449856;28;20056;-63
2022/10/22 15:43:52;;;;;;;13.30;3.17;;;17.10;76.60;;;;;;10449845;28;20122;-65
2022/10/22 15:48:53;;;;;;;7.43;2.72;;;17.20;76.20;;;;;;10431539;28;20412;-64
2022/10/22 15:53:57;;;;;;;8.40;4.05;;;17.30;76.40;;;;;;10461544;28;20056;-64
2022/10/22 15:59:03;;;;;;;10.15;3.50;;;17.30;76.50;;;;;;10445791;28;20096;-64
2022/10/22 16:04:05;;;;;;;13.20;3.60;;;17.40;77.10;;;;;;10448735;28;20048;-64
2022/10/22 16:09:10;;;;;;;8.40;3.70;;;17.40;77.10;;;;;;10447085;28;20161;-66
2022/10/22 16:14:14;;;;;;;8.18;3.00;;;17.30;77.10;;;;;;10448186;28;20029;-65
2022/10/22 16:19:17;;;;;;;7.00;2.95;;;17.30;77.00;;;;;;10447681;28;20032;-65
2022/10/22 16:24:18;;;;;;;8.45;3.05;;;17.40;76.20;;;;;;10436159;28;20101;-65
2022/10/22 16:29:19;;;;;;;23.17;10.05;;;17.50;77.20;;;;;;10454381;28;20108;-64
2022/10/22 16:34:19;;;;;;;21.85;13.25;;;17.40;76.40;;;;;;10429512;28;20029;-67
2022/10/22 16:39:20;;;;;;;11.98;7.25;;;17.40;76.30;;;;;;10429381;28;20476;-63
2022/10/22 16:44:21;;;;;;;12.10;5.18;;;17.40;76.60;;;;;;10446249;28;20373;-66
2022/10/22 16:49:22;;;;;;;7.53;4.30;;;17.30;76.60;;;;;;10444679;28;20032;-66
2022/10/22 16:54:22;;;;;;;13.82;5.22;;;17.20;76.40;;;;;;10446849;28;20028;-66
2022/10/22 16:59:23;;;;;;;9.15;4.18;;;17.30;76.30;;;;;;10445919;28;20111;-66
2022/10/22 17:04:23;;;;;;;7.75;3.80;;;17.30;76.20;;;;;;10447181;28;20040;-65
2022/10/22 17:09:24;;;;;;;8.77;3.88;;;17.30;76.00;;;;;;10444213;28;20096;-64
2022/10/22 17:14:25;;;;;;;11.82;3.90;;;17.30;76.20;;;;;;10444673;28;20056;-68
2022/10/22 17:19:26;;;;;;;8.23;3.97;;;17.20;76.20;;;;;;10445237;28;20051;-67
2022/10/22 17:24:26;;;;;;;9.05;3.75;;;17.20;76.40;;;;;;10443174;28;20088;-67
2022/10/22 17:29:27;;;;;;;7.45;3.95;;;17.20;76.40;;;;;;10459820;28;20020;-67
2022/10/22 17:34:31;;;;;;;8.25;3.45;;;17.10;76.30;;;;;;10443590;28;20426;-67
2022/10/22 17:39:32;;;;;;;8.32;3.10;;;17.10;76.30;;;;;;10426401;28;20017;-68
2022/10/22 17:44:33;;;;;;;13.40;4.70;;;17.20;76.70;;;;;;10443240;28;20137;-66
2022/10/22 17:49:34;;;;;;;10.82;3.72;;;17.10;76.50;;;;;;10412281;28;20056;-65
2022/10/22 17:54:35;;;;;;;9.57;3.78;;;17.10;76.40;;;;;;10427614;28;20041;-68
2022/10/22 17:59:36;;;;;;;7.90;4.28;;;17.10;76.20;;;;;;10427714;28;20043;-67
2022/10/22 18:04:37;;;;;;;10.18;3.47;;;17.10;76.20;;;;;;10446599;28;20525;-67
2022/10/22 18:09:38;;;;;;;10.90;3.70;;;17.10;76.20;;;;;;10443404;28;20049;-65
2022/10/22 18:14:39;;;;;;;12.30;4.10;;;17.20;76.60;;;;;;10443260;28;20025;-65
2022/10/22 18:19:40;;;;;;;12.40;3.40;;;17.20;76.60;;;;;;10444833;28;20430;-65
2022/10/22 18:24:41;;;;;;;7.72;4.10;;;17.20;76.60;;;;;;10444731;28;20025;-66
2022/10/22 18:29:41;;;;;;;9.38;3.72;;;17.20;76.60;;;;;;10443437;28;20472;-66
2022/10/22 18:34:42;;;;;;;11.68;3.65;;;17.20;76.70;;;;;;10442507;28;20424;-65
2022/10/22 18:39:43;;;;;;;11.20;3.72;;;17.20;76.80;;;;;;10442762;28;20159;-67
2022/10/22 18:44:43;;;;;;;8.88;3.13;;;17.20;76.80;;;;;;10452929;28;20065;-67
2022/10/22 18:49:44;;;;;;;6.97;3.20;;;17.20;76.40;;;;;;10452227;28;20141;-67
2022/10/22 18:54:45;;;;;;;6.32;3.50;;;17.10;76.50;;;;;;10450935;28;20104;-67
2022/10/22 18:59:45;;;;;;;7.38;2.63;;;17.10;76.70;;;;;;10450585;28;20055;-66
2022/10/22 19:04:46;;;;;;;6.85;3.35;;;17.10;76.80;;;;;;10451670;28;20056;-66
2022/10/22 19:09:47;;;;;;;8.68;3.08;;;17.10;76.90;;;;;;10445045;28;20424;-67
2022/10/22 19:14:48;;;;;;;9.93;3.25;;;17.10;76.90;;;;;;10451555;28;20029;-67
2022/10/22 19:19:49;;;;;;;6.20;3.22;;;17.00;77.00;;;;;;10451413;28;20017;-67
2022/10/22 19:24:50;;;;;;;7.90;3.15;;;17.10;76.90;;;;;;10411957;28;20018;-67
2022/10/22 19:29:51;;;;;;;7.38;3.22;;;17.10;76.90;;;;;;10452706;28;20550;-67
2022/10/22 19:34:51;;;;;;;7.07;3.30;;;17.10;77.00;;;;;;10440767;28;20111;-67
2022/10/22 19:39:52;;;;;;;5.15;2.88;;;17.10;76.70;;;;;;10446379;28;20668;-67
2022/10/22 19:44:53;;;;;;;6.85;2.85;;;17.10;76.60;;;;;;10447180;28;20136;-67
2022/10/22 19:49:53;;;;;;;5.32;2.90;;;17.10;76.60;;;;;;10448997;28;20021;-67
2022/10/22 19:54:54;;;;;;;6.57;3.17;;;17.10;76.50;;;;;;10432010;28;20108;-68
2022/10/22 19:59:55;;;;;;;5.93;2.47;;;17.00;76.40;;;;;;10448402;28;20587;-67
2022/10/22 20:04:55;;;;;;;4.93;2.78;;;17.00;76.40;;;;;;10444667;28;20060;-67
2022/10/22 20:09:56;;;;;;;7.43;3.55;;;17.00;76.30;;;;;;10448395;28;20105;-67
2022/10/22 20:14:57;;;;;;;6.60;2.97;;;17.00;76.30;;;;;;10461202;28;20017;-67
2022/10/22 20:19:58;;;;;;;5.75;2.85;;;17.00;76.20;;;;;;10447846;28;20112;-67
2022/10/22 20:24:58;;;;;;;5.88;3.50;;;17.00;76.10;;;;;;10448916;28;20074;-67
2022/10/22 20:29:59;;;;;;;6.43;2.70;;;17.00;76.10;;;;;;10448737;28;20082;-68
2022/10/22 20:35:00;;;;;;;4.28;2.33;;;17.00;76.10;;;;;;10448462;28;20467;-67
2022/10/22 20:40:00;;;;;;;6.45;2.88;;;17.00;76.10;;;;;;10447454;28;20040;-67
2022/10/22 20:45:01;;;;;;;8.05;2.95;;;17.00;76.00;;;;;;10443885;28;20053;-67
2022/10/22 20:50:02;;;;;;;4.80;2.95;;;17.00;75.90;;;;;;10447264;28;20067;-67
2022/10/22 20:55:03;;;;;;;6.03;3.05;;;17.00;75.90;;;;;;10446415;28;20025;-67
2022/10/22 21:00:05;;;;;;;6.47;2.92;;;17.00;75.90;;;;;;10447708;28;20024;-67
2022/10/22 21:05:06;;;;;;;5.43;2.35;;;17.00;75.80;;;;;;10447449;28;20033;-68
2022/10/22 21:10:07;;;;;;;5.75;2.45;;;17.00;75.80;;;;;;10445532;28;20013;-67
2022/10/22 21:15:09;;;;;;;4.32;2.20;;;17.00;75.80;;;;;;10429103;28;20032;-67
2022/10/22 21:20:10;;;;;;;5.13;2.22;;;17.00;75.70;;;;;;10459787;28;20081;-67
2022/10/22 21:25:11;;;;;;;4.22;2.28;;;17.00;75.60;;;;;;10447568;28;20082;-67
2022/10/22 21:30:12;;;;;;;4.22;2.17;;;17.00;75.50;;;;;;10428978;28;20453;-67
2022/10/22 21:35:12;;;;;;;4.45;2.22;;;17.00;75.50;;;;;;10445097;28;20025;-67
2022/10/22 21:40:13;;;;;;;3.72;2.05;;;17.00;75.50;;;;;;10444945;28;20100;-67
2022/10/22 21:45:14;;;;;;;3.65;2.38;;;17.00;75.40;;;;;;10444939;28;20388;-68
2022/10/22 21:50:14;;;;;;;3.90;2.10;;;17.00;75.40;;;;;;10428403;28;20021;-67
2022/10/22 21:55:15;;;;;;;5.50;2.13;;;16.90;75.30;;;;;;10446222;28;20047;-67
2022/10/22 22:00:20;;;;;;;4.35;2.30;;;16.90;75.30;;;;;;10428282;28;20354;-67
2022/10/22 22:05:21;;;;;;;5.07;1.98;;;16.90;75.20;;;;;;10441496;28;20029;-67
2022/10/22 22:10:25;;;;;;;5.20;2.55;;;16.90;75.20;;;;;;10428338;28;20028;-68
2022/10/22 22:15:26;;;;;;;6.18;2.00;;;16.90;75.20;;;;;;10458162;28;20017;-67
2022/10/22 22:20:27;;;;;;;4.35;1.90;;;16.90;75.20;;;;;;10430355;28;20074;-67
2022/10/22 22:25:28;;;;;;;3.15;1.90;;;16.90;75.10;;;;;;10451410;28;20021;-68
2022/10/22 22:30:29;;;;;;;4.13;2.08;;;16.90;75.10;;;;;;10463853;28;20021;-67
2022/10/22 22:35:29;;;;;;;3.33;2.17;;;16.90;75.10;;;;;;10451772;28;20108;-68
2022/10/22 22:40:30;;;;;;;3.60;2.15;;;16.90;75.10;;;;;;10435463;28;20132;-67
2022/10/22 22:45:31;;;;;;;3.63;1.70;;;16.90;75.10;;;;;;10450897;28;20128;-67
2022/10/22 22:50:31;;;;;;;3.65;2.00;;;16.90;75.10;;;;;;10465587;28;20061;-68
2022/10/22 22:55:32;;;;;;;2.45;1.77;;;16.90;75.10;;;;;;10465604;28;20124;-67
2022/10/22 23:00:33;;;;;;;3.95;2.10;;;16.90;75.00;;;;;;10464765;28;20029;-67
2022/10/22 23:05:36;;;;;;;3.38;1.90;;;16.90;75.00;;;;;;10465579;28;20115;-67
2022/10/22 23:10:37;;;;;;;3.92;2.53;;;16.90;75.00;;;;;;10451309;28;20035;-67
2022/10/22 23:15:39;;;;;;;3.78;2.28;;;16.90;75.00;;;;;;10434033;28;20499;-68
2022/10/22 23:20:39;;;;;;;2.65;1.95;;;16.90;75.00;;;;;;10450949;28;20079;-68
2022/10/22 23:25:40;;;;;;;3.03;1.80;;;16.90;75.00;;;;;;10451811;28;20603;-68
2022/10/22 23:30:44;;;;;;;5.45;2.25;;;16.90;74.90;;;;;;10451460;28;20023;-68
2022/10/22 23:35:45;;;;;;;4.25;2.03;;;16.80;74.80;;;;;;10451651;28;20115;-68
2022/10/22 23:40:46;;;;;;;3.92;1.95;;;16.80;74.80;;;;;;10451085;28;20476;-67
2022/10/22 23:45:46;;;;;;;4.47;2.92;;;16.80;74.80;;;;;;10448967;28;20072;-67
2022/10/22 23:50:48;;;;;;;3.47;2.20;;;16.80;74.80;;;;;;10432756;28;20028;-67
2022/10/22 23:55:48;;;;;;;4.35;2.28;;;16.80;74.80;;;;;;10449149;28;20032;-68
